sensor_id;sensor_type;location;lat;lon;timestamp;P1;durP1;ratioP1;P2;durP2;ratioP2
52266;SDS011;38223;50.940;4.034;2023-04-03T00:02:27;16.82;;;15.05;;
52266;SDS011;38223;50.940;4.034;2023-04-03T00:04:57;21.50;;;15.43;;
52266;SDS011;38223;50.940;4.034;2023-04-03T00:07:30;17.48;;;15.58;;
52266;SDS011;38223;50.940;4.034;2023-04-03T00:10:04;18.45;;;15.48;;
52266;SDS011;38223;50.940;4.034;2023-04-03T00:12:37;16.90;;;14.43;;
52266;SDS011;38223;50.940;4.034;2023-04-03T00:15:06;15.88;;;14.28;;
52266;SDS011;38223;50.940;4.034;2023-04-03T00:17:38;17.35;;;15.08;;
52266;SDS011;38223;50.940;4.034;2023-04-03T00:20:09;15.28;;;13.70;;
52266;SDS011;38223;50.940;4.034;2023-04-03T00:22:42;16.07;;;13.85;;
52266;SDS011;38223;50.940;4.034;2023-04-03T00:25:12;14.47;;;12.98;;
52266;SDS011;38223;50.940;4.034;2023-04-03T00:27:44;14.70;;;13.28;;
52266;SDS011;38223;50.940;4.034;2023-04-03T00:30:17;14.25;;;12.85;;
52266;SDS011;38223;50.940;4.034;2023-04-03T00:32:52;14.53;;;13.13;;
52266;SDS011;38223;50.940;4.034;2023-04-03T00:35:22;14.13;;;12.65;;
52266;SDS011;38223;50.940;4.034;2023-04-03T00:37:53;13.65;;;11.95;;
52266;SDS011;38223;50.940;4.034;2023-04-03T00:40:23;14.63;;;12.05;;
52266;SDS011;38223;50.940;4.034;2023-04-03T00:42:55;15.40;;;12.65;;
52266;SDS011;38223;50.940;4.034;2023-04-03T00:45:39;14.80;;;12.28;;
52266;SDS011;38223;50.940;4.034;2023-04-03T00:48:02;14.00;;;12.65;;
52266;SDS011;38223;50.940;4.034;2023-04-03T00:50:37;13.80;;;12.47;;
52266;SDS011;38223;50.940;4.034;2023-04-03T00:53:14;15.98;;;12.45;;
52266;SDS011;38223;50.940;4.034;2023-04-03T00:55:46;13.95;;;12.47;;
52266;SDS011;38223;50.940;4.034;2023-04-03T00:58:20;14.80;;;13.05;;
52266;SDS011;38223;50.940;4.034;2023-04-03T01:00:50;15.72;;;12.58;;
52266;SDS011;38223;50.940;4.034;2023-04-03T01:03:26;13.32;;;12.13;;
52266;SDS011;38223;50.940;4.034;2023-04-03T01:05:55;14.03;;;12.50;;
52266;SDS011;38223;50.940;4.034;2023-04-03T01:08:28;14.10;;;12.55;;
52266;SDS011;38223;50.940;4.034;2023-04-03T01:10:57;14.07;;;12.63;;
52266;SDS011;38223;50.940;4.034;2023-04-03T01:13:29;13.83;;;12.45;;
52266;SDS011;38223;50.940;4.034;2023-04-03T01:16:03;13.05;;;11.80;;
52266;SDS011;38223;50.940;4.034;2023-04-03T01:18:36;16.77;;;11.97;;
52266;SDS011;38223;50.940;4.034;2023-04-03T01:24:53;11.30;;;10.05;;
52266;SDS011;38223;50.940;4.034;2023-04-03T01:26:40;10.03;;;9.03;;
52266;SDS011;38223;50.940;4.034;2023-04-03T01:29:12;11.08;;;9.73;;
52266;SDS011;38223;50.940;4.034;2023-04-03T01:31:58;9.93;;;8.50;;
52266;SDS011;38223;50.940;4.034;2023-04-03T01:34:34;9.50;;;8.48;;
52266;SDS011;38223;50.940;4.034;2023-04-03T01:37:23;9.15;;;8.35;;
52266;SDS011;38223;50.940;4.034;2023-04-03T01:39:53;10.30;;;9.20;;
52266;SDS011;38223;50.940;4.034;2023-04-03T01:42:20;9.25;;;8.25;;
52266;SDS011;38223;50.940;4.034;2023-04-03T01:44:48;8.20;;;7.50;;
52266;SDS011;38223;50.940;4.034;2023-04-03T01:47:26;9.43;;;7.90;;
52266;SDS011;38223;50.940;4.034;2023-04-03T01:49:55;9.10;;;7.87;;
52266;SDS011;38223;50.940;4.034;2023-04-03T01:52:25;8.05;;;7.35;;
52266;SDS011;38223;50.940;4.034;2023-04-03T01:55:00;8.38;;;7.58;;
52266;SDS011;38223;50.940;4.034;2023-04-03T01:57:30;10.25;;;8.23;;
52266;SDS011;38223;50.940;4.034;2023-04-03T02:00:06;10.82;;;8.30;;
52266;SDS011;38223;50.940;4.034;2023-04-03T02:02:38;8.53;;;7.72;;
52266;SDS011;38223;50.940;4.034;2023-04-03T02:05:10;9.63;;;7.92;;
52266;SDS011;38223;50.940;4.034;2023-04-03T02:07:40;8.45;;;7.60;;
52266;SDS011;38223;50.940;4.034;2023-04-03T02:10:08;7.83;;;7.22;;
52266;SDS011;38223;50.940;4.034;2023-04-03T02:12:37;7.67;;;6.97;;
52266;SDS011;38223;50.940;4.034;2023-04-03T02:15:09;8.90;;;7.15;;
52266;SDS011;38223;50.940;4.034;2023-04-03T02:17:40;8.30;;;7.22;;
52266;SDS011;38223;50.940;4.034;2023-04-03T02:20:10;9.18;;;7.10;;
52266;SDS011;38223;50.940;4.034;2023-04-03T02:22:46;7.65;;;6.95;;
52266;SDS011;38223;50.940;4.034;2023-04-03T02:25:18;6.78;;;6.15;;
52266;SDS011;38223;50.940;4.034;2023-04-03T02:27:50;6.65;;;5.87;;
52266;SDS011;38223;50.940;4.034;2023-04-03T02:30:20;7.80;;;6.53;;
52266;SDS011;38223;50.940;4.034;2023-04-03T02:32:49;8.03;;;5.60;;
52266;SDS011;38223;50.940;4.034;2023-04-03T02:35:17;6.97;;;6.37;;
52266;SDS011;38223;50.940;4.034;2023-04-03T02:37:45;7.25;;;6.55;;
52266;SDS011;38223;50.940;4.034;2023-04-03T02:40:18;8.70;;;6.35;;
52266;SDS011;38223;50.940;4.034;2023-04-03T02:42:49;6.45;;;5.83;;
52266;SDS011;38223;50.940;4.034;2023-04-03T02:45:21;8.00;;;6.17;;
52266;SDS011;38223;50.940;4.034;2023-04-03T02:47:52;6.15;;;5.60;;
52266;SDS011;38223;50.940;4.034;2023-04-03T02:50:28;7.75;;;6.40;;
52266;SDS011;38223;50.940;4.034;2023-04-03T02:52:58;6.42;;;5.50;;
52266;SDS011;38223;50.940;4.034;2023-04-03T02:55:32;6.58;;;5.85;;
52266;SDS011;38223;50.940;4.034;2023-04-03T02:58:02;6.22;;;5.50;;
52266;SDS011;38223;50.940;4.034;2023-04-03T03:00:34;5.95;;;5.35;;
52266;SDS011;38223;50.940;4.034;2023-04-03T03:03:06;7.50;;;6.28;;
52266;SDS011;38223;50.940;4.034;2023-04-03T03:05:39;11.70;;;6.50;;
52266;SDS011;38223;50.940;4.034;2023-04-03T03:08:11;8.00;;;6.22;;
52266;SDS011;38223;50.940;4.034;2023-04-03T03:10:40;7.45;;;6.75;;
52266;SDS011;38223;50.940;4.034;2023-04-03T03:13:12;7.33;;;6.25;;
52266;SDS011;38223;50.940;4.034;2023-04-03T03:15:43;6.80;;;6.15;;
52266;SDS011;38223;50.940;4.034;2023-04-03T03:18:10;6.62;;;6.03;;
52266;SDS011;38223;50.940;4.034;2023-04-03T03:20:40;7.30;;;6.58;;
52266;SDS011;38223;50.940;4.034;2023-04-03T03:23:08;10.08;;;6.40;;
52266;SDS011;38223;50.940;4.034;2023-04-03T03:25:38;7.73;;;6.93;;
52266;SDS011;38223;50.940;4.034;2023-04-03T03:28:11;8.83;;;6.28;;
52266;SDS011;38223;50.940;4.034;2023-04-03T03:30:42;8.45;;;6.53;;
52266;SDS011;38223;50.940;4.034;2023-04-03T03:33:14;7.10;;;6.50;;
52266;SDS011;38223;50.940;4.034;2023-04-03T03:35:43;7.20;;;6.40;;
52266;SDS011;38223;50.940;4.034;2023-04-03T03:38:13;8.30;;;6.50;;
52266;SDS011;38223;50.940;4.034;2023-04-03T03:40:41;8.90;;;6.95;;
52266;SDS011;38223;50.940;4.034;2023-04-03T03:43:09;10.32;;;6.62;;
52266;SDS011;38223;50.940;4.034;2023-04-03T03:45:37;9.93;;;6.87;;
52266;SDS011;38223;50.940;4.034;2023-04-03T03:48:05;8.23;;;7.12;;
52266;SDS011;38223;50.940;4.034;2023-04-03T03:50:33;8.10;;;6.92;;
52266;SDS011;38223;50.940;4.034;2023-04-03T03:53:03;7.37;;;6.60;;
52266;SDS011;38223;50.940;4.034;2023-04-03T03:55:33;7.20;;;6.60;;
52266;SDS011;38223;50.940;4.034;2023-04-03T03:58:04;7.42;;;6.70;;
52266;SDS011;38223;50.940;4.034;2023-04-03T04:00:36;7.62;;;6.22;;
52266;SDS011;38223;50.940;4.034;2023-04-03T04:03:03;9.33;;;6.75;;
52266;SDS011;38223;50.940;4.034;2023-04-03T04:05:32;7.05;;;6.33;;
52266;SDS011;38223;50.940;4.034;2023-04-03T04:08:01;7.20;;;6.50;;
52266;SDS011;38223;50.940;4.034;2023-04-03T04:10:34;8.25;;;6.37;;
52266;SDS011;38223;50.940;4.034;2023-04-03T04:13:09;10.55;;;7.03;;
52266;SDS011;38223;50.940;4.034;2023-04-03T04:15:39;9.13;;;6.87;;
52266;SDS011;38223;50.940;4.034;2023-04-03T04:18:10;8.30;;;6.45;;
52266;SDS011;38223;50.940;4.034;2023-04-03T04:20:44;8.58;;;6.83;;
52266;SDS011;38223;50.940;4.034;2023-04-03T04:23:18;7.15;;;6.45;;
52266;SDS011;38223;50.940;4.034;2023-04-03T04:25:46;7.62;;;6.90;;
52266;SDS011;38223;50.940;4.034;2023-04-03T04:28:14;11.68;;;7.37;;
52266;SDS011;38223;50.940;4.034;2023-04-03T04:30:50;7.95;;;7.10;;
52266;SDS011;38223;50.940;4.034;2023-04-03T04:33:23;7.92;;;7.12;;
52266;SDS011;38223;50.940;4.034;2023-04-03T04:35:55;8.88;;;7.53;;
52266;SDS011;38223;50.940;4.034;2023-04-03T04:38:29;7.47;;;6.92;;
52266;SDS011;38223;50.940;4.034;2023-04-03T04:40:57;8.23;;;7.53;;
52266;SDS011;38223;50.940;4.034;2023-04-03T04:43:25;8.95;;;7.22;;
52266;SDS011;38223;50.940;4.034;2023-04-03T04:46:05;9.77;;;7.80;;
52266;SDS011;38223;50.940;4.034;2023-04-03T04:48:37;8.65;;;7.80;;
52266;SDS011;38223;50.940;4.034;2023-04-03T04:51:10;9.20;;;7.37;;
52266;SDS011;38223;50.940;4.034;2023-04-03T04:53:46;7.90;;;7.10;;
52266;SDS011;38223;50.940;4.034;2023-04-03T04:56:16;9.43;;;7.78;;
52266;SDS011;38223;50.940;4.034;2023-04-03T04:58:43;8.73;;;7.87;;
52266;SDS011;38223;50.940;4.034;2023-04-03T05:01:17;9.78;;;8.40;;
52266;SDS011;38223;50.940;4.034;2023-04-03T05:03:50;11.20;;;7.58;;
52266;SDS011;38223;50.940;4.034;2023-04-03T05:06:23;8.63;;;7.50;;
52266;SDS011;38223;50.940;4.034;2023-04-03T05:08:52;8.63;;;7.53;;
52266;SDS011;38223;50.940;4.034;2023-04-03T05:11:24;8.30;;;7.47;;
52266;SDS011;38223;50.940;4.034;2023-04-03T05:13:56;9.90;;;7.87;;
52266;SDS011;38223;50.940;4.034;2023-04-03T05:16:27;8.58;;;7.75;;
52266;SDS011;38223;50.940;4.034;2023-04-03T05:19:01;10.05;;;7.55;;
52266;SDS011;38223;50.940;4.034;2023-04-03T05:21:31;13.50;;;7.67;;
52266;SDS011;38223;50.940;4.034;2023-04-03T05:24:03;9.08;;;8.23;;
52266;SDS011;38223;50.940;4.034;2023-04-03T05:26:33;9.53;;;8.15;;
52266;SDS011;38223;50.940;4.034;2023-04-03T05:29:07;8.38;;;7.58;;
52266;SDS011;38223;50.940;4.034;2023-04-03T05:31:37;8.53;;;7.80;;
52266;SDS011;38223;50.940;4.034;2023-04-03T05:34:14;9.00;;;8.13;;
52266;SDS011;38223;50.940;4.034;2023-04-03T05:36:44;8.88;;;8.00;;
52266;SDS011;38223;50.940;4.034;2023-04-03T05:39:12;8.78;;;7.90;;
52266;SDS011;38223;50.940;4.034;2023-04-03T05:41:42;11.68;;;8.30;;
52266;SDS011;38223;50.940;4.034;2023-04-03T05:44:15;9.85;;;7.85;;
52266;SDS011;38223;50.940;4.034;2023-04-03T05:46:46;11.88;;;8.45;;
52266;SDS011;38223;50.940;4.034;2023-04-03T05:49:19;9.23;;;8.33;;
52266;SDS011;38223;50.940;4.034;2023-04-03T05:51:47;10.43;;;8.40;;
52266;SDS011;38223;50.940;4.034;2023-04-03T05:54:24;9.25;;;8.45;;
52266;SDS011;38223;50.940;4.034;2023-04-03T05:56:57;10.85;;;8.53;;
52266;SDS011;38223;50.940;4.034;2023-04-03T05:59:30;11.30;;;9.08;;
52266;SDS011;38223;50.940;4.034;2023-04-03T06:02:00;10.32;;;8.60;;
52266;SDS011;38223;50.940;4.034;2023-04-03T06:04:32;9.60;;;8.60;;
52266;SDS011;38223;50.940;4.034;2023-04-03T06:07:04;10.82;;;8.68;;
52266;SDS011;38223;50.940;4.034;2023-04-03T06:09:38;9.78;;;8.78;;
52266;SDS011;38223;50.940;4.034;2023-04-03T06:12:08;11.33;;;9.28;;
52266;SDS011;38223;50.940;4.034;2023-04-03T06:14:47;9.20;;;8.35;;
52266;SDS011;38223;50.940;4.034;2023-04-03T06:17:17;9.48;;;8.78;;
52266;SDS011;38223;50.940;4.034;2023-04-03T06:19:48;10.98;;;8.93;;
52266;SDS011;38223;50.940;4.034;2023-04-03T06:22:19;10.53;;;8.48;;
52266;SDS011;38223;50.940;4.034;2023-04-03T06:24:50;10.15;;;9.13;;
52266;SDS011;38223;50.940;4.034;2023-04-03T06:27:24;12.30;;;9.53;;
52266;SDS011;38223;50.940;4.034;2023-04-03T06:29:56;11.63;;;9.28;;
52266;SDS011;38223;50.940;4.034;2023-04-03T06:32:31;11.88;;;9.58;;
52266;SDS011;38223;50.940;4.034;2023-04-03T06:37:35;10.48;;;8.85;;
52266;SDS011;38223;50.940;4.034;2023-04-03T06:40:09;11.45;;;9.25;;
52266;SDS011;38223;50.940;4.034;2023-04-03T06:42:42;10.18;;;8.75;;
52266;SDS011;38223;50.940;4.034;2023-04-03T06:45:16;12.13;;;9.20;;
52266;SDS011;38223;50.940;4.034;2023-04-03T06:47:51;12.20;;;8.70;;
52266;SDS011;38223;50.940;4.034;2023-04-03T06:50:19;15.85;;;8.18;;
52266;SDS011;38223;50.940;4.034;2023-04-03T06:52:47;13.10;;;8.45;;
52266;SDS011;38223;50.940;4.034;2023-04-03T06:55:14;9.70;;;8.80;;
52266;SDS011;38223;50.940;4.034;2023-04-03T06:57:45;9.45;;;7.47;;
52266;SDS011;38223;50.940;4.034;2023-04-03T07:00:18;11.73;;;7.92;;
52266;SDS011;38223;50.940;4.034;2023-04-03T07:02:46;8.73;;;7.85;;
52266;SDS011;38223;50.940;4.034;2023-04-03T07:05:14;10.25;;;8.28;;
52266;SDS011;38223;50.940;4.034;2023-04-03T07:07:48;12.53;;;8.38;;
52266;SDS011;38223;50.940;4.034;2023-04-03T07:10:22;9.05;;;8.25;;
52266;SDS011;38223;50.940;4.034;2023-04-03T07:12:54;8.33;;;7.65;;
52266;SDS011;38223;50.940;4.034;2023-04-03T07:15:22;10.98;;;8.95;;
52266;SDS011;38223;50.940;4.034;2023-04-03T07:17:55;9.50;;;8.25;;
52266;SDS011;38223;50.940;4.034;2023-04-03T07:20:29;8.55;;;7.85;;
52266;SDS011;38223;50.940;4.034;2023-04-03T07:23:02;11.10;;;8.48;;
52266;SDS011;38223;50.940;4.034;2023-04-03T07:25:33;9.38;;;8.45;;
52266;SDS011;38223;50.940;4.034;2023-04-03T07:28:03;9.83;;;8.73;;
52266;SDS011;38223;50.940;4.034;2023-04-03T07:30:48;16.10;;;8.80;;
52266;SDS011;38223;50.940;4.034;2023-04-03T07:33:13;10.90;;;8.53;;
52266;SDS011;38223;50.940;4.034;2023-04-03T07:35:49;10.35;;;9.10;;
52266;SDS011;38223;50.940;4.034;2023-04-03T07:38:19;9.75;;;8.00;;
52266;SDS011;38223;50.940;4.034;2023-04-03T07:40:53;8.73;;;7.92;;
52266;SDS011;38223;50.940;4.034;2023-04-03T07:43:22;8.98;;;8.13;;
52266;SDS011;38223;50.940;4.034;2023-04-03T07:45:55;9.10;;;7.70;;
52266;SDS011;38223;50.940;4.034;2023-04-03T07:48:25;8.83;;;7.67;;
52266;SDS011;38223;50.940;4.034;2023-04-03T07:51:02;9.65;;;7.75;;
52266;SDS011;38223;50.940;4.034;2023-04-03T07:53:32;7.70;;;7.03;;
52266;SDS011;38223;50.940;4.034;2023-04-03T07:56:10;7.97;;;6.80;;
52266;SDS011;38223;50.940;4.034;2023-04-03T07:58:44;8.63;;;6.65;;
52266;SDS011;38223;50.940;4.034;2023-04-03T08:01:15;7.25;;;6.60;;
52266;SDS011;38223;50.940;4.034;2023-04-03T08:03:47;6.97;;;6.28;;
52266;SDS011;38223;50.940;4.034;2023-04-03T08:06:19;8.65;;;6.45;;
52266;SDS011;38223;50.940;4.034;2023-04-03T08:08:54;7.70;;;6.42;;
52266;SDS011;38223;50.940;4.034;2023-04-03T08:11:30;8.80;;;7.17;;
52266;SDS011;38223;50.940;4.034;2023-04-03T08:14:00;10.15;;;7.12;;
52266;SDS011;38223;50.940;4.034;2023-04-03T08:16:31;6.90;;;6.20;;
52266;SDS011;38223;50.940;4.034;2023-04-03T08:19:03;8.03;;;5.80;;
52266;SDS011;38223;50.940;4.034;2023-04-03T08:21:36;7.53;;;6.47;;
52266;SDS011;38223;50.940;4.034;2023-04-03T08:24:07;7.10;;;5.80;;
52266;SDS011;38223;50.940;4.034;2023-04-03T08:26:43;7.72;;;6.10;;
52266;SDS011;38223;50.940;4.034;2023-04-03T08:29:14;8.80;;;6.00;;
52266;SDS011;38223;50.940;4.034;2023-04-03T08:31:43;6.78;;;5.72;;
52266;SDS011;38223;50.940;4.034;2023-04-03T08:34:12;6.67;;;6.08;;
52266;SDS011;38223;50.940;4.034;2023-04-03T08:36:40;10.20;;;6.60;;
52266;SDS011;38223;50.940;4.034;2023-04-03T08:39:09;10.78;;;6.53;;
52266;SDS011;38223;50.940;4.034;2023-04-03T08:41:44;8.15;;;5.33;;
52266;SDS011;38223;50.940;4.034;2023-04-03T08:47:20;6.75;;;4.60;;
52266;SDS011;38223;50.940;4.034;2023-04-03T08:49:50;9.03;;;4.72;;
52266;SDS011;38223;50.940;4.034;2023-04-03T08:52:38;6.75;;;4.03;;
52266;SDS011;38223;50.940;4.034;2023-04-03T08:58:02;5.95;;;4.92;;
52266;SDS011;38223;50.940;4.034;2023-04-03T09:03:38;6.95;;;5.30;;
52266;SDS011;38223;50.940;4.034;2023-04-03T09:06:11;10.78;;;6.00;;
52266;SDS011;38223;50.940;4.034;2023-04-03T09:08:59;5.25;;;4.75;;
52266;SDS011;38223;50.940;4.034;2023-04-03T09:11:36;14.30;;;5.65;;
52266;SDS011;38223;50.940;4.034;2023-04-03T09:17:07;5.55;;;4.30;;
52266;SDS011;38223;50.940;4.034;2023-04-03T09:22:41;4.40;;;4.00;;
52266;SDS011;38223;50.940;4.034;2023-04-03T09:25:22;4.65;;;4.17;;
52266;SDS011;38223;50.940;4.034;2023-04-03T09:27:53;6.65;;;3.58;;
52266;SDS011;38223;50.940;4.034;2023-04-03T09:30:26;5.03;;;3.40;;
52266;SDS011;38223;50.940;4.034;2023-04-03T09:33:08;5.60;;;2.70;;
52266;SDS011;38223;50.940;4.034;2023-04-03T09:35:42;3.83;;;2.80;;
52266;SDS011;38223;50.940;4.034;2023-04-03T09:38:24;5.03;;;2.80;;
52266;SDS011;38223;50.940;4.034;2023-04-03T09:41:06;5.17;;;3.22;;
52266;SDS011;38223;50.940;4.034;2023-04-03T09:43:37;6.08;;;3.12;;
52266;SDS011;38223;50.940;4.034;2023-04-03T09:49:08;4.65;;;2.58;;
52266;SDS011;38223;50.940;4.034;2023-04-03T09:51:42;3.70;;;2.62;;
52266;SDS011;38223;50.940;4.034;2023-04-03T09:54:33;8.50;;;2.65;;
52266;SDS011;38223;50.940;4.034;2023-04-03T09:57:11;6.50;;;2.30;;
52266;SDS011;38223;50.940;4.034;2023-04-03T09:59:44;4.22;;;2.15;;
52266;SDS011;38223;50.940;4.034;2023-04-03T10:02:22;3.90;;;1.92;;
52266;SDS011;38223;50.940;4.034;2023-04-03T10:04:59;5.95;;;2.65;;
52266;SDS011;38223;50.940;4.034;2023-04-03T10:07:33;6.33;;;2.80;;
52266;SDS011;38223;50.940;4.034;2023-04-03T10:10:03;3.92;;;2.37;;
52266;SDS011;38223;50.940;4.034;2023-04-03T10:12:33;4.25;;;2.22;;
52266;SDS011;38223;50.940;4.034;2023-04-03T10:15:11;5.78;;;2.55;;
52266;SDS011;38223;50.940;4.034;2023-04-03T10:20:33;4.95;;;2.47;;
52266;SDS011;38223;50.940;4.034;2023-04-03T10:26:07;5.28;;;1.92;;
52266;SDS011;38223;50.940;4.034;2023-04-03T10:28:56;4.33;;;2.12;;
52266;SDS011;38223;50.940;4.034;2023-04-03T10:31:43;2.77;;;2.22;;
52266;SDS011;38223;50.940;4.034;2023-04-03T10:34:25;3.72;;;1.90;;
52266;SDS011;38223;50.940;4.034;2023-04-03T10:39:52;5.92;;;2.40;;
52266;SDS011;38223;50.940;4.034;2023-04-03T10:47:58;3.50;;;2.95;;
52266;SDS011;38223;50.940;4.034;2023-04-03T10:56:36;4.17;;;1.90;;
52266;SDS011;38223;50.940;4.034;2023-04-03T11:02:06;8.20;;;1.90;;
52266;SDS011;38223;50.940;4.034;2023-04-03T11:04:34;3.60;;;1.75;;
52266;SDS011;38223;50.940;4.034;2023-04-03T11:07:10;4.17;;;1.90;;
52266;SDS011;38223;50.940;4.034;2023-04-03T11:09:44;3.85;;;1.77;;
52266;SDS011;38223;50.940;4.034;2023-04-03T11:12:40;3.70;;;1.80;;
52266;SDS011;38223;50.940;4.034;2023-04-03T11:15:16;2.22;;;1.40;;
52266;SDS011;38223;50.940;4.034;2023-04-03T11:17:48;3.25;;;1.60;;
52266;SDS011;38223;50.940;4.034;2023-04-03T11:20:31;2.67;;;1.37;;
52266;SDS011;38223;50.940;4.034;2023-04-03T11:25:56;2.77;;;1.42;;
52266;SDS011;38223;50.940;4.034;2023-04-03T11:28:26;2.45;;;1.30;;
52266;SDS011;38223;50.940;4.034;2023-04-03T11:36:59;2.00;;;1.30;;
52266;SDS011;38223;50.940;4.034;2023-04-03T11:39:35;2.25;;;1.27;;
52266;SDS011;38223;50.940;4.034;2023-04-03T11:44:46;3.08;;;1.57;;
52266;SDS011;38223;50.940;4.034;2023-04-03T11:56:01;3.08;;;1.32;;
52266;SDS011;38223;50.940;4.034;2023-04-03T11:59:15;3.15;;;1.35;;
52266;SDS011;38223;50.940;4.034;2023-04-03T12:01:42;2.62;;;1.45;;
52266;SDS011;38223;50.940;4.034;2023-04-03T12:04:08;2.90;;;1.30;;
52266;SDS011;38223;50.940;4.034;2023-04-03T12:12:24;2.22;;;1.00;;
52266;SDS011;38223;50.940;4.034;2023-04-03T12:15:24;8.13;;;1.15;;
52266;SDS011;38223;50.940;4.034;2023-04-03T12:18:44;3.95;;;2.15;;
52266;SDS011;38223;50.940;4.034;2023-04-03T12:20:58;4.80;;;1.77;;
52266;SDS011;38223;50.940;4.034;2023-04-03T12:23:31;2.62;;;1.40;;
52266;SDS011;38223;50.940;4.034;2023-04-03T12:26:05;2.33;;;1.45;;
52266;SDS011;38223;50.940;4.034;2023-04-03T12:28:56;3.17;;;1.10;;
52266;SDS011;38223;50.940;4.034;2023-04-03T12:31:32;2.45;;;1.37;;
52266;SDS011;38223;50.940;4.034;2023-04-03T12:34:02;4.67;;;1.27;;
52266;SDS011;38223;50.940;4.034;2023-04-03T12:45:27;4.12;;;1.32;;
52266;SDS011;38223;50.940;4.034;2023-04-03T12:48:00;5.22;;;1.47;;
52266;SDS011;38223;50.940;4.034;2023-04-03T12:50:30;4.12;;;1.35;;
52266;SDS011;38223;50.940;4.034;2023-04-03T12:53:05;2.60;;;0.85;;
52266;SDS011;38223;50.940;4.034;2023-04-03T12:55:35;1.92;;;0.80;;
52266;SDS011;38223;50.940;4.034;2023-04-03T12:58:19;1.40;;;1.02;;
52266;SDS011;38223;50.940;4.034;2023-04-03T13:01:03;1.80;;;0.93;;
52266;SDS011;38223;50.940;4.034;2023-04-03T13:03:34;2.92;;;1.20;;
52266;SDS011;38223;50.940;4.034;2023-04-03T13:06:19;2.42;;;1.25;;
52266;SDS011;38223;50.940;4.034;2023-04-03T13:08:56;2.40;;;1.00;;
52266;SDS011;38223;50.940;4.034;2023-04-03T13:11:33;1.70;;;0.93;;
52266;SDS011;38223;50.940;4.034;2023-04-03T13:14:05;2.17;;;0.90;;
52266;SDS011;38223;50.940;4.034;2023-04-03T13:16:38;2.58;;;1.00;;
52266;SDS011;38223;50.940;4.034;2023-04-03T13:19:16;1.57;;;1.10;;
52266;SDS011;38223;50.940;4.034;2023-04-03T13:21:44;2.47;;;1.40;;
52266;SDS011;38223;50.940;4.034;2023-04-03T13:24:17;3.65;;;0.95;;
52266;SDS011;38223;50.940;4.034;2023-04-03T13:26:45;2.67;;;1.00;;
52266;SDS011;38223;50.940;4.034;2023-04-03T13:29:21;2.70;;;1.87;;
52266;SDS011;38223;50.940;4.034;2023-04-03T13:32:07;5.60;;;1.00;;
52266;SDS011;38223;50.940;4.034;2023-04-03T13:34:48;3.95;;;0.90;;
52266;SDS011;38223;50.940;4.034;2023-04-03T13:42:40;2.52;;;0.95;;
52266;SDS011;38223;50.940;4.034;2023-04-03T13:45:16;7.05;;;1.07;;
52266;SDS011;38223;50.940;4.034;2023-04-03T13:47:49;2.50;;;1.25;;
52266;SDS011;38223;50.940;4.034;2023-04-03T13:50:20;3.60;;;1.20;;
52266;SDS011;38223;50.940;4.034;2023-04-03T13:52:55;3.25;;;1.10;;
52266;SDS011;38223;50.940;4.034;2023-04-03T13:55:29;2.30;;;1.40;;
52266;SDS011;38223;50.940;4.034;2023-04-03T14:00:50;1.50;;;0.95;;
52266;SDS011;38223;50.940;4.034;2023-04-03T14:03:30;2.27;;;0.82;;
52266;SDS011;38223;50.940;4.034;2023-04-03T14:06:07;2.15;;;1.17;;
52266;SDS011;38223;50.940;4.034;2023-04-03T14:08:43;2.35;;;0.80;;
52266;SDS011;38223;50.940;4.034;2023-04-03T14:11:21;2.35;;;0.85;;
52266;SDS011;38223;50.940;4.034;2023-04-03T14:13:49;3.30;;;1.07;;
52266;SDS011;38223;50.940;4.034;2023-04-03T14:16:22;2.85;;;1.20;;
52266;SDS011;38223;50.940;4.034;2023-04-03T14:18:56;6.62;;;1.07;;
52266;SDS011;38223;50.940;4.034;2023-04-03T14:21:25;1.98;;;0.90;;
52266;SDS011;38223;50.940;4.034;2023-04-03T14:23:52;2.12;;;0.98;;
52266;SDS011;38223;50.940;4.034;2023-04-03T14:26:21;3.15;;;1.12;;
52266;SDS011;38223;50.940;4.034;2023-04-03T14:28:53;5.05;;;1.10;;
52266;SDS011;38223;50.940;4.034;2023-04-03T14:31:22;8.05;;;1.35;;
52266;SDS011;38223;50.940;4.034;2023-04-03T14:33:49;7.58;;;2.12;;
52266;SDS011;38223;50.940;4.034;2023-04-03T14:36:23;3.67;;;1.70;;
52266;SDS011;38223;50.940;4.034;2023-04-03T14:38:48;4.72;;;1.10;;
52266;SDS011;38223;50.940;4.034;2023-04-03T14:41:43;2.60;;;1.22;;
52266;SDS011;38223;50.940;4.034;2023-04-03T14:44:11;3.50;;;1.40;;
52266;SDS011;38223;50.940;4.034;2023-04-03T14:46:40;3.00;;;1.40;;
52266;SDS011;38223;50.940;4.034;2023-04-03T14:49:16;5.78;;;1.40;;
52266;SDS011;38223;50.940;4.034;2023-04-03T14:51:46;4.47;;;1.20;;
52266;SDS011;38223;50.940;4.034;2023-04-03T14:54:19;2.62;;;1.37;;
52266;SDS011;38223;50.940;4.034;2023-04-03T14:56:51;4.65;;;1.40;;
52266;SDS011;38223;50.940;4.034;2023-04-03T14:59:21;3.35;;;1.15;;
52266;SDS011;38223;50.940;4.034;2023-04-03T15:01:49;2.22;;;0.98;;
52266;SDS011;38223;50.940;4.034;2023-04-03T15:04:18;4.30;;;1.60;;
52266;SDS011;38223;50.940;4.034;2023-04-03T15:06:47;3.00;;;0.95;;
52266;SDS011;38223;50.940;4.034;2023-04-03T15:09:21;2.65;;;1.40;;
52266;SDS011;38223;50.940;4.034;2023-04-03T15:11:51;3.20;;;1.57;;
52266;SDS011;38223;50.940;4.034;2023-04-03T15:14:19;2.92;;;1.67;;
52266;SDS011;38223;50.940;4.034;2023-04-03T15:16:52;2.98;;;1.40;;
52266;SDS011;38223;50.940;4.034;2023-04-03T15:19:23;2.42;;;1.40;;
52266;SDS011;38223;50.940;4.034;2023-04-03T15:21:50;6.33;;;1.50;;
52266;SDS011;38223;50.940;4.034;2023-04-03T15:24:18;3.00;;;1.40;;
52266;SDS011;38223;50.940;4.034;2023-04-03T15:26:46;1.95;;;1.25;;
52266;SDS011;38223;50.940;4.034;2023-04-03T15:29:13;2.40;;;1.30;;
52266;SDS011;38223;50.940;4.034;2023-04-03T15:31:41;2.58;;;1.30;;
52266;SDS011;38223;50.940;4.034;2023-04-03T15:34:08;2.80;;;1.30;;
52266;SDS011;38223;50.940;4.034;2023-04-03T15:36:37;2.30;;;1.22;;
52266;SDS011;38223;50.940;4.034;2023-04-03T15:39:05;1.50;;;1.07;;
52266;SDS011;38223;50.940;4.034;2023-04-03T15:41:37;1.50;;;0.85;;
52266;SDS011;38223;50.940;4.034;2023-04-03T15:44:07;2.20;;;0.95;;
52266;SDS011;38223;50.940;4.034;2023-04-03T15:46:34;1.72;;;1.00;;
52266;SDS011;38223;50.940;4.034;2023-04-03T15:49:07;2.02;;;1.10;;
52266;SDS011;38223;50.940;4.034;2023-04-03T15:51:37;2.87;;;1.52;;
52266;SDS011;38223;50.940;4.034;2023-04-03T15:54:05;4.53;;;1.27;;
52266;SDS011;38223;50.940;4.034;2023-04-03T15:56:33;4.00;;;1.20;;
52266;SDS011;38223;50.940;4.034;2023-04-03T15:59:00;1.42;;;1.10;;
52266;SDS011;38223;50.940;4.034;2023-04-03T16:01:28;2.60;;;0.98;;
52266;SDS011;38223;50.940;4.034;2023-04-03T16:04:00;2.02;;;1.00;;
52266;SDS011;38223;50.940;4.034;2023-04-03T16:06:30;1.47;;;1.12;;
52266;SDS011;38223;50.940;4.034;2023-04-03T16:09:04;2.25;;;1.00;;
52266;SDS011;38223;50.940;4.034;2023-04-03T16:11:39;2.45;;;1.02;;
52266;SDS011;38223;50.940;4.034;2023-04-03T16:14:07;1.27;;;0.85;;
52266;SDS011;38223;50.940;4.034;2023-04-03T16:16:35;1.90;;;1.00;;
52266;SDS011;38223;50.940;4.034;2023-04-03T16:19:04;3.12;;;1.10;;
52266;SDS011;38223;50.940;4.034;2023-04-03T16:21:33;2.50;;;1.20;;
52266;SDS011;38223;50.940;4.034;2023-04-03T16:24:07;1.57;;;0.90;;
52266;SDS011;38223;50.940;4.034;2023-04-03T16:26:37;2.22;;;1.20;;
52266;SDS011;38223;50.940;4.034;2023-04-03T16:29:08;3.22;;;1.10;;
52266;SDS011;38223;50.940;4.034;2023-04-03T16:31:35;2.80;;;1.20;;
52266;SDS011;38223;50.940;4.034;2023-04-03T16:34:03;3.80;;;1.45;;
52266;SDS011;38223;50.940;4.034;2023-04-03T16:36:31;1.92;;;1.20;;
52266;SDS011;38223;50.940;4.034;2023-04-03T16:38:58;1.57;;;1.22;;
52266;SDS011;38223;50.940;4.034;2023-04-03T16:41:26;1.47;;;1.00;;
52266;SDS011;38223;50.940;4.034;2023-04-03T16:43:55;1.77;;;1.17;;
52266;SDS011;38223;50.940;4.034;2023-04-03T16:46:30;2.12;;;1.20;;